sensor_id;sensor_type;location;lat;lon;timestamp;P1;durP1;ratioP1;P2;durP2;ratioP2
58071;SDS011;60383;46.626;18.866;2023-09-19T00:01:20;6.88;;;3.95;;
58071;SDS011;60383;46.626;18.866;2023-09-19T00:03:46;7.25;;;4.57;;
58071;SDS011;60383;46.626;18.866;2023-09-19T00:06:11;8.20;;;4.55;;
58071;SDS011;60383;46.626;18.866;2023-09-19T00:08:40;7.65;;;4.80;;
58071;SDS011;60383;46.626;18.866;2023-09-19T00:11:09;6.25;;;4.32;;
58071;SDS011;60383;46.626;18.866;2023-09-19T00:13:36;6.68;;;4.47;;
58071;SDS011;60383;46.626;18.866;2023-09-19T00:16:07;6.50;;;3.83;;
58071;SDS011;60383;46.626;18.866;2023-09-19T00:18:35;7.53;;;4.75;;
58071;SDS011;60383;46.626;18.866;2023-09-19T00:21:01;5.47;;;3.92;;
58071;SDS011;60383;46.626;18.866;2023-09-19T00:23:29;6.22;;;4.40;;
58071;SDS011;60383;46.626;18.866;2023-09-19T00:25:59;4.95;;;3.85;;
58071;SDS011;60383;46.626;18.866;2023-09-19T00:28:26;5.72;;;4.35;;
58071;SDS011;60383;46.626;18.866;2023-09-19T00:30:52;6.38;;;3.67;;
58071;SDS011;60383;46.626;18.866;2023-09-19T00:33:19;6.22;;;4.13;;
58071;SDS011;60383;46.626;18.866;2023-09-19T00:35:48;6.53;;;4.10;;
58071;SDS011;60383;46.626;18.866;2023-09-19T00:38:14;8.73;;;4.20;;
58071;SDS011;60383;46.626;18.866;2023-09-19T00:40:45;4.88;;;4.00;;
58071;SDS011;60383;46.626;18.866;2023-09-19T00:43:11;8.18;;;4.60;;
58071;SDS011;60383;46.626;18.866;2023-09-19T00:45:36;5.72;;;4.15;;
58071;SDS011;60383;46.626;18.866;2023-09-19T00:48:07;7.47;;;4.80;;
58071;SDS011;60383;46.626;18.866;2023-09-19T00:50:34;6.75;;;3.90;;
58071;SDS011;60383;46.626;18.866;2023-09-19T00:53:01;8.63;;;4.50;;
58071;SDS011;60383;46.626;18.866;2023-09-19T00:55:30;6.82;;;4.97;;
58071;SDS011;60383;46.626;18.866;2023-09-19T00:57:57;7.20;;;4.80;;
58071;SDS011;60383;46.626;18.866;2023-09-19T01:00:23;7.22;;;4.47;;
58071;SDS011;60383;46.626;18.866;2023-09-19T01:02:49;7.72;;;4.95;;
58071;SDS011;60383;46.626;18.866;2023-09-19T01:05:15;6.07;;;4.40;;
58071;SDS011;60383;46.626;18.866;2023-09-19T01:07:41;5.40;;;4.18;;
58071;SDS011;60383;46.626;18.866;2023-09-19T01:10:12;9.05;;;5.95;;
58071;SDS011;60383;46.626;18.866;2023-09-19T01:26:06;7.90;;;4.95;;
58071;SDS011;60383;46.626;18.866;2023-09-19T01:28:51;7.80;;;5.07;;
58071;SDS011;60383;46.626;18.866;2023-09-19T01:31:19;7.30;;;4.75;;
58071;SDS011;60383;46.626;18.866;2023-09-19T01:34:01;10.18;;;5.55;;
58071;SDS011;60383;46.626;18.866;2023-09-19T01:36:32;6.25;;;4.60;;
58071;SDS011;60383;46.626;18.866;2023-09-19T01:39:01;7.88;;;4.75;;
58071;SDS011;60383;46.626;18.866;2023-09-19T01:44:21;9.40;;;4.57;;
58071;SDS011;60383;46.626;18.866;2023-09-19T01:46:50;7.18;;;4.93;;
58071;SDS011;60383;46.626;18.866;2023-09-19T01:49:42;6.35;;;4.75;;
58071;SDS011;60383;46.626;18.866;2023-09-19T01:52:15;6.60;;;4.60;;
58071;SDS011;60383;46.626;18.866;2023-09-19T01:54:52;6.20;;;4.82;;
58071;SDS011;60383;46.626;18.866;2023-09-19T01:57:35;7.75;;;4.72;;
58071;SDS011;60383;46.626;18.866;2023-09-19T02:00:22;8.40;;;4.90;;
58071;SDS011;60383;46.626;18.866;2023-09-19T02:02:49;7.72;;;5.32;;
58071;SDS011;60383;46.626;18.866;2023-09-19T02:05:23;6.65;;;5.25;;
58071;SDS011;60383;46.626;18.866;2023-09-19T02:07:49;8.43;;;5.30;;
58071;SDS011;60383;46.626;18.866;2023-09-19T02:10:15;5.95;;;4.75;;
58071;SDS011;60383;46.626;18.866;2023-09-19T02:12:42;8.05;;;4.85;;
58071;SDS011;60383;46.626;18.866;2023-09-19T02:15:07;6.65;;;4.60;;
58071;SDS011;60383;46.626;18.866;2023-09-19T02:17:34;7.60;;;4.25;;
58071;SDS011;60383;46.626;18.866;2023-09-19T02:20:00;8.93;;;5.60;;
58071;SDS011;60383;46.626;18.866;2023-09-19T02:22:25;6.88;;;4.53;;
58071;SDS011;60383;46.626;18.866;2023-09-19T02:24:52;8.95;;;5.15;;
58071;SDS011;60383;46.626;18.866;2023-09-19T02:27:18;7.40;;;5.05;;
58071;SDS011;60383;46.626;18.866;2023-09-19T02:29:44;6.28;;;4.85;;
58071;SDS011;60383;46.626;18.866;2023-09-19T02:32:10;7.38;;;4.97;;
58071;SDS011;60383;46.626;18.866;2023-09-19T02:34:35;8.02;;;5.75;;
58071;SDS011;60383;46.626;18.866;2023-09-19T02:37:02;7.45;;;4.95;;
58071;SDS011;60383;46.626;18.866;2023-09-19T02:39:30;7.40;;;5.03;;
58071;SDS011;60383;46.626;18.866;2023-09-19T02:41:56;8.05;;;5.25;;
58071;SDS011;60383;46.626;18.866;2023-09-19T02:44:21;6.47;;;4.90;;
58071;SDS011;60383;46.626;18.866;2023-09-19T02:46:48;8.48;;;4.78;;
58071;SDS011;60383;46.626;18.866;2023-09-19T02:49:14;8.32;;;4.28;;
58071;SDS011;60383;46.626;18.866;2023-09-19T02:51:40;9.68;;;4.35;;
58071;SDS011;60383;46.626;18.866;2023-09-19T02:54:05;6.28;;;4.07;;
58071;SDS011;60383;46.626;18.866;2023-09-19T02:56:31;6.72;;;5.00;;
58071;SDS011;60383;46.626;18.866;2023-09-19T02:58:57;7.35;;;4.72;;
58071;SDS011;60383;46.626;18.866;2023-09-19T03:01:23;7.43;;;4.60;;
58071;SDS011;60383;46.626;18.866;2023-09-19T03:03:48;6.93;;;3.97;;
58071;SDS011;60383;46.626;18.866;2023-09-19T03:06:14;7.60;;;5.13;;
58071;SDS011;60383;46.626;18.866;2023-09-19T03:08:41;6.32;;;4.82;;
58071;SDS011;60383;46.626;18.866;2023-09-19T03:11:07;5.97;;;4.35;;
58071;SDS011;60383;46.626;18.866;2023-09-19T03:13:35;8.05;;;5.03;;
58071;SDS011;60383;46.626;18.866;2023-09-19T03:16:01;7.28;;;5.40;;
58071;SDS011;60383;46.626;18.866;2023-09-19T03:18:30;7.43;;;5.50;;
58071;SDS011;60383;46.626;18.866;2023-09-19T03:20:57;6.57;;;4.90;;
58071;SDS011;60383;46.626;18.866;2023-09-19T03:23:25;8.10;;;5.15;;
58071;SDS011;60383;46.626;18.866;2023-09-19T03:25:51;9.43;;;5.50;;
58071;SDS011;60383;46.626;18.866;2023-09-19T03:28:21;7.22;;;5.53;;
58071;SDS011;60383;46.626;18.866;2023-09-19T03:30:57;7.35;;;5.13;;
58071;SDS011;60383;46.626;18.866;2023-09-19T03:33:24;7.07;;;5.40;;
58071;SDS011;60383;46.626;18.866;2023-09-19T03:35:53;7.70;;;5.82;;
58071;SDS011;60383;46.626;18.866;2023-09-19T03:38:19;8.90;;;5.70;;
58071;SDS011;60383;46.626;18.866;2023-09-19T03:40:44;7.60;;;5.43;;
58071;SDS011;60383;46.626;18.866;2023-09-19T03:43:10;7.07;;;4.68;;
58071;SDS011;60383;46.626;18.866;2023-09-19T03:45:35;7.32;;;5.32;;
58071;SDS011;60383;46.626;18.866;2023-09-19T03:48:06;6.13;;;5.05;;
58071;SDS011;60383;46.626;18.866;2023-09-19T03:50:33;9.48;;;6.60;;
58071;SDS011;60383;46.626;18.866;2023-09-19T03:52:59;9.32;;;6.13;;
58071;SDS011;60383;46.626;18.866;2023-09-19T03:55:24;8.52;;;6.18;;
58071;SDS011;60383;46.626;18.866;2023-09-19T03:57:50;8.27;;;6.13;;
58071;SDS011;60383;46.626;18.866;2023-09-19T04:00:15;9.07;;;7.30;;
58071;SDS011;60383;46.626;18.866;2023-09-19T04:02:43;8.48;;;5.95;;
58071;SDS011;60383;46.626;18.866;2023-09-19T04:05:11;9.18;;;5.35;;
58071;SDS011;60383;46.626;18.866;2023-09-19T04:07:36;8.98;;;6.40;;
58071;SDS011;60383;46.626;18.866;2023-09-19T04:10:02;9.73;;;5.90;;
58071;SDS011;60383;46.626;18.866;2023-09-19T04:12:28;7.22;;;5.40;;
58071;SDS011;60383;46.626;18.866;2023-09-19T04:14:53;8.07;;;5.82;;
58071;SDS011;60383;46.626;18.866;2023-09-19T04:17:19;8.25;;;5.63;;
58071;SDS011;60383;46.626;18.866;2023-09-19T04:19:45;9.85;;;6.00;;
58071;SDS011;60383;46.626;18.866;2023-09-19T04:22:11;8.27;;;6.22;;
58071;SDS011;60383;46.626;18.866;2023-09-19T04:24:37;8.98;;;6.13;;
58071;SDS011;60383;46.626;18.866;2023-09-19T04:27:03;8.15;;;6.25;;
58071;SDS011;60383;46.626;18.866;2023-09-19T04:29:29;11.15;;;6.32;;
58071;SDS011;60383;46.626;18.866;2023-09-19T04:31:55;7.43;;;5.88;;
58071;SDS011;60383;46.626;18.866;2023-09-19T04:34:24;8.18;;;5.90;;
58071;SDS011;60383;46.626;18.866;2023-09-19T04:36:49;8.20;;;5.85;;
58071;SDS011;60383;46.626;18.866;2023-09-19T04:39:15;8.60;;;5.97;;
58071;SDS011;60383;46.626;18.866;2023-09-19T04:41:41;9.05;;;6.43;;
58071;SDS011;60383;46.626;18.866;2023-09-19T04:44:07;10.32;;;6.03;;
58071;SDS011;60383;46.626;18.866;2023-09-19T04:46:33;8.23;;;6.15;;
58071;SDS011;60383;46.626;18.866;2023-09-19T04:48:59;9.55;;;6.97;;
58071;SDS011;60383;46.626;18.866;2023-09-19T04:51:25;9.80;;;6.35;;
58071;SDS011;60383;46.626;18.866;2023-09-19T04:53:54;9.75;;;6.80;;
58071;SDS011;60383;46.626;18.866;2023-09-19T04:56:19;12.20;;;7.03;;
58071;SDS011;60383;46.626;18.866;2023-09-19T04:58:46;8.95;;;6.63;;
58071;SDS011;60383;46.626;18.866;2023-09-19T05:01:11;9.43;;;6.72;;
58071;SDS011;60383;46.626;18.866;2023-09-19T05:03:39;9.68;;;6.65;;
58071;SDS011;60383;46.626;18.866;2023-09-19T05:06:04;9.23;;;6.68;;
58071;SDS011;60383;46.626;18.866;2023-09-19T05:08:30;9.77;;;7.10;;
58071;SDS011;60383;46.626;18.866;2023-09-19T05:10:56;9.57;;;6.68;;
58071;SDS011;60383;46.626;18.866;2023-09-19T05:13:21;9.38;;;6.97;;
58071;SDS011;60383;46.626;18.866;2023-09-19T05:15:48;10.25;;;7.10;;
58071;SDS011;60383;46.626;18.866;2023-09-19T05:18:15;10.27;;;7.25;;
58071;SDS011;60383;46.626;18.866;2023-09-19T05:20:40;8.80;;;7.05;;
58071;SDS011;60383;46.626;18.866;2023-09-19T05:23:07;9.68;;;6.47;;
58071;SDS011;60383;46.626;18.866;2023-09-19T05:25:34;8.68;;;6.95;;
58071;SDS011;60383;46.626;18.866;2023-09-19T05:28:05;11.55;;;6.68;;
58071;SDS011;60383;46.626;18.866;2023-09-19T05:30:32;9.20;;;6.40;;
58071;SDS011;60383;46.626;18.866;2023-09-19T05:32:58;11.95;;;7.32;;
58071;SDS011;60383;46.626;18.866;2023-09-19T05:35:24;11.15;;;6.65;;
58071;SDS011;60383;46.626;18.866;2023-09-19T05:37:51;10.15;;;7.03;;
58071;SDS011;60383;46.626;18.866;2023-09-19T05:40:18;7.97;;;6.20;;
58071;SDS011;60383;46.626;18.866;2023-09-19T05:42:43;10.68;;;7.00;;
58071;SDS011;60383;46.626;18.866;2023-09-19T05:45:10;11.52;;;6.82;;
58071;SDS011;60383;46.626;18.866;2023-09-19T05:47:41;8.57;;;6.03;;
58071;SDS011;60383;46.626;18.866;2023-09-19T05:50:09;10.93;;;5.47;;
58071;SDS011;60383;46.626;18.866;2023-09-19T05:52:35;10.20;;;4.68;;
58071;SDS011;60383;46.626;18.866;2023-09-19T05:55:03;7.68;;;4.15;;
58071;SDS011;60383;46.626;18.866;2023-09-19T05:57:34;6.63;;;4.18;;
58071;SDS011;60383;46.626;18.866;2023-09-19T06:00:00;6.45;;;3.65;;
58071;SDS011;60383;46.626;18.866;2023-09-19T06:02:25;11.73;;;3.30;;
58071;SDS011;60383;46.626;18.866;2023-09-19T06:04:55;5.15;;;3.00;;
58071;SDS011;60383;46.626;18.866;2023-09-19T06:07:21;4.72;;;2.70;;
58071;SDS011;60383;46.626;18.866;2023-09-19T06:09:51;4.30;;;2.30;;
58071;SDS011;60383;46.626;18.866;2023-09-19T06:12:16;3.55;;;1.60;;
58071;SDS011;60383;46.626;18.866;2023-09-19T06:14:42;3.72;;;1.58;;
58071;SDS011;60383;46.626;18.866;2023-09-19T06:17:08;1.50;;;1.08;;
58071;SDS011;60383;46.626;18.866;2023-09-19T06:19:34;1.67;;;0.80;;
58071;SDS011;60383;46.626;18.866;2023-09-19T06:21:59;1.27;;;0.73;;
58071;SDS011;60383;46.626;18.866;2023-09-19T06:24:25;1.60;;;0.80;;
58071;SDS011;60383;46.626;18.866;2023-09-19T06:26:51;3.60;;;0.80;;
58071;SDS011;60383;46.626;18.866;2023-09-19T06:29:18;1.02;;;0.60;;
58071;SDS011;60383;46.626;18.866;2023-09-19T06:31:45;2.40;;;0.70;;
58071;SDS011;60383;46.626;18.866;2023-09-19T06:34:12;0.50;;;0.38;;
58071;SDS011;60383;46.626;18.866;2023-09-19T06:36:39;0.82;;;0.52;;
58071;SDS011;60383;46.626;18.866;2023-09-19T06:39:05;1.45;;;0.60;;
58071;SDS011;60383;46.626;18.866;2023-09-19T06:41:31;0.68;;;0.52;;
58071;SDS011;60383;46.626;18.866;2023-09-19T06:43:57;1.38;;;0.43;;
58071;SDS011;60383;46.626;18.866;2023-09-19T06:46:22;1.60;;;0.40;;
58071;SDS011;60383;46.626;18.866;2023-09-19T06:48:48;1.30;;;0.60;;
58071;SDS011;60383;46.626;18.866;2023-09-19T06:51:14;1.05;;;0.95;;
58071;SDS011;60383;46.626;18.866;2023-09-19T06:53:41;1.17;;;0.60;;
58071;SDS011;60383;46.626;18.866;2023-09-19T06:56:06;1.05;;;0.60;;
58071;SDS011;60383;46.626;18.866;2023-09-19T06:58:32;0.80;;;0.50;;
58071;SDS011;60383;46.626;18.866;2023-09-19T07:00:57;0.65;;;0.50;;
58071;SDS011;60383;46.626;18.866;2023-09-19T07:03:23;0.50;;;0.40;;
58071;SDS011;60383;46.626;18.866;2023-09-19T07:05:51;0.70;;;0.50;;
58071;SDS011;60383;46.626;18.866;2023-09-19T07:08:17;1.13;;;0.43;;
58071;SDS011;60383;46.626;18.866;2023-09-19T07:10:45;1.70;;;0.60;;
58071;SDS011;60383;46.626;18.866;2023-09-19T07:13:13;1.00;;;0.55;;
58071;SDS011;60383;46.626;18.866;2023-09-19T07:15:41;2.83;;;2.47;;
58071;SDS011;60383;46.626;18.866;2023-09-19T07:20:37;0.60;;;0.50;;
58071;SDS011;60383;46.626;18.866;2023-09-19T07:23:03;0.70;;;0.60;;
58071;SDS011;60383;46.626;18.866;2023-09-19T07:25:28;1.35;;;0.60;;
58071;SDS011;60383;46.626;18.866;2023-09-19T07:27:58;0.70;;;0.65;;
58071;SDS011;60383;46.626;18.866;2023-09-19T07:30:26;2.33;;;0.57;;
58071;SDS011;60383;46.626;18.866;2023-09-19T07:32:52;0.77;;;0.50;;
58071;SDS011;60383;46.626;18.866;2023-09-19T07:35:18;1.92;;;0.70;;
58071;SDS011;60383;46.626;18.866;2023-09-19T07:37:47;0.70;;;0.50;;
58071;SDS011;60383;46.626;18.866;2023-09-19T07:40:16;1.25;;;0.57;;
58071;SDS011;60383;46.626;18.866;2023-09-19T07:42:42;0.93;;;0.60;;
58071;SDS011;60383;46.626;18.866;2023-09-19T07:45:11;0.95;;;0.57;;
58071;SDS011;60383;46.626;18.866;2023-09-19T07:47:49;1.77;;;0.70;;
58071;SDS011;60383;46.626;18.866;2023-09-19T07:50:16;0.93;;;0.60;;
58071;SDS011;60383;46.626;18.866;2023-09-19T07:52:44;1.42;;;0.70;;
58071;SDS011;60383;46.626;18.866;2023-09-19T07:55:09;2.05;;;0.73;;
58071;SDS011;60383;46.626;18.866;2023-09-19T07:57:41;1.30;;;0.70;;
58071;SDS011;60383;46.626;18.866;2023-09-19T08:00:07;2.92;;;0.68;;
58071;SDS011;60383;46.626;18.866;2023-09-19T08:02:35;1.25;;;0.80;;
58071;SDS011;60383;46.626;18.866;2023-09-19T08:05:03;0.70;;;0.70;;
58071;SDS011;60383;46.626;18.866;2023-09-19T08:07:31;1.48;;;0.45;;
58071;SDS011;60383;46.626;18.866;2023-09-19T08:12:26;0.80;;;0.55;;
58071;SDS011;60383;46.626;18.866;2023-09-19T08:14:52;1.17;;;0.75;;
58071;SDS011;60383;46.626;18.866;2023-09-19T08:17:17;1.35;;;0.60;;
58071;SDS011;60383;46.626;18.866;2023-09-19T08:19:45;1.40;;;0.60;;
58071;SDS011;60383;46.626;18.866;2023-09-19T08:22:11;1.95;;;0.60;;
58071;SDS011;60383;46.626;18.866;2023-09-19T08:24:37;0.60;;;0.47;;
58071;SDS011;60383;46.626;18.866;2023-09-19T08:27:03;1.45;;;0.50;;
58071;SDS011;60383;46.626;18.866;2023-09-19T08:29:29;0.70;;;0.32;;
58071;SDS011;60383;46.626;18.866;2023-09-19T08:31:56;1.05;;;0.60;;
58071;SDS011;60383;46.626;18.866;2023-09-19T08:34:23;0.85;;;0.50;;
58071;SDS011;60383;46.626;18.866;2023-09-19T08:36:52;0.50;;;0.50;;
58071;SDS011;60383;46.626;18.866;2023-09-19T08:39:22;1.00;;;0.60;;
58071;SDS011;60383;46.626;18.866;2023-09-19T08:41:47;1.88;;;0.50;;
58071;SDS011;60383;46.626;18.866;2023-09-19T08:44:13;1.15;;;0.70;;
58071;SDS011;60383;46.626;18.866;2023-09-19T08:46:40;3.55;;;0.73;;
58071;SDS011;60383;46.626;18.866;2023-09-19T08:49:32;0.82;;;0.60;;
58071;SDS011;60383;46.626;18.866;2023-09-19T08:52:01;0.85;;;0.50;;
58071;SDS011;60383;46.626;18.866;2023-09-19T08:54:35;0.52;;;0.52;;
58071;SDS011;60383;46.626;18.866;2023-09-19T08:57:06;1.65;;;0.73;;
58071;SDS011;60383;46.626;18.866;2023-09-19T08:59:39;0.47;;;0.47;;
58071;SDS011;60383;46.626;18.866;2023-09-19T09:02:13;0.60;;;0.60;;
58071;SDS011;60383;46.626;18.866;2023-09-19T09:04:43;3.55;;;0.80;;
58071;SDS011;60383;46.626;18.866;2023-09-19T09:07:13;0.95;;;0.60;;
58071;SDS011;60383;46.626;18.866;2023-09-19T09:09:39;1.15;;;0.50;;
58071;SDS011;60383;46.626;18.866;2023-09-19T09:12:12;1.52;;;0.60;;
58071;SDS011;60383;46.626;18.866;2023-09-19T09:14:39;1.85;;;0.80;;
58071;SDS011;60383;46.626;18.866;2023-09-19T09:17:05;0.80;;;0.60;;
58071;SDS011;60383;46.626;18.866;2023-09-19T09:19:32;1.02;;;0.70;;
58071;SDS011;60383;46.626;18.866;2023-09-19T09:22:07;1.08;;;0.73;;
58071;SDS011;60383;46.626;18.866;2023-09-19T09:24:36;1.02;;;0.52;;
58071;SDS011;60383;46.626;18.866;2023-09-19T09:27:04;2.08;;;0.60;;
58071;SDS011;60383;46.626;18.866;2023-09-19T09:29:43;0.57;;;0.57;;
58071;SDS011;60383;46.626;18.866;2023-09-19T09:32:23;0.65;;;0.65;;
58071;SDS011;60383;46.626;18.866;2023-09-19T09:34:54;2.90;;;0.98;;
58071;SDS011;60383;46.626;18.866;2023-09-19T09:37:19;0.98;;;0.63;;
58071;SDS011;60383;46.626;18.866;2023-09-19T09:39:52;1.02;;;0.70;;
58071;SDS011;60383;46.626;18.866;2023-09-19T09:42:29;0.63;;;0.60;;
58071;SDS011;60383;46.626;18.866;2023-09-19T09:47:46;1.13;;;0.80;;
58071;SDS011;60383;46.626;18.866;2023-09-19T09:50:30;0.85;;;0.75;;
58071;SDS011;60383;46.626;18.866;2023-09-19T09:53:03;1.33;;;0.52;;
58071;SDS011;60383;46.626;18.866;2023-09-19T09:58:52;1.48;;;0.70;;
58071;SDS011;60383;46.626;18.866;2023-09-19T10:01:24;1.08;;;0.80;;
58071;SDS011;60383;46.626;18.866;2023-09-19T10:03:56;1.85;;;0.80;;
58071;SDS011;60383;46.626;18.866;2023-09-19T10:06:23;1.13;;;0.70;;
58071;SDS011;60383;46.626;18.866;2023-09-19T10:09:08;2.25;;;0.70;;
58071;SDS011;60383;46.626;18.866;2023-09-19T10:11:44;1.48;;;0.70;;
58071;SDS011;60383;46.626;18.866;2023-09-19T10:14:12;1.77;;;1.40;;
58071;SDS011;60383;46.626;18.866;2023-09-19T10:16:41;1.27;;;0.60;;
58071;SDS011;60383;46.626;18.866;2023-09-19T10:19:12;1.48;;;1.00;;
58071;SDS011;60383;46.626;18.866;2023-09-19T10:21:55;1.13;;;0.80;;
58071;SDS011;60383;46.626;18.866;2023-09-19T10:24:22;1.05;;;0.57;;
58071;SDS011;60383;46.626;18.866;2023-09-19T10:26:50;0.77;;;0.70;;
58071;SDS011;60383;46.626;18.866;2023-09-19T10:29:16;1.38;;;0.70;;
58071;SDS011;60383;46.626;18.866;2023-09-19T10:31:44;1.50;;;0.50;;
58071;SDS011;60383;46.626;18.866;2023-09-19T10:34:15;1.02;;;0.60;;
58071;SDS011;60383;46.626;18.866;2023-09-19T10:36:44;1.20;;;0.80;;
58071;SDS011;60383;46.626;18.866;2023-09-19T10:39:12;0.55;;;0.52;;
58071;SDS011;60383;46.626;18.866;2023-09-19T10:41:44;1.38;;;0.60;;
58071;SDS011;60383;46.626;18.866;2023-09-19T10:44:18;0.90;;;0.80;;
58071;SDS011;60383;46.626;18.866;2023-09-19T10:46:48;1.13;;;0.60;;
58071;SDS011;60383;46.626;18.866;2023-09-19T10:49:15;1.00;;;0.70;;
58071;SDS011;60383;46.626;18.866;2023-09-19T10:51:41;1.05;;;0.82;;
58071;SDS011;60383;46.626;18.866;2023-09-19T10:54:10;1.20;;;0.65;;
58071;SDS011;60383;46.626;18.866;2023-09-19T10:56:38;1.55;;;0.70;;
58071;SDS011;60383;46.626;18.866;2023-09-19T10:59:20;0.93;;;0.80;;
58071;SDS011;60383;46.626;18.866;2023-09-19T11:01:47;0.93;;;0.70;;
58071;SDS011;60383;46.626;18.866;2023-09-19T11:15:02;1.35;;;0.70;;
58071;SDS011;60383;46.626;18.866;2023-09-19T11:17:39;1.83;;;0.60;;
58071;SDS011;60383;46.626;18.866;2023-09-19T11:30:47;1.45;;;0.50;;
58071;SDS011;60383;46.626;18.866;2023-09-19T11:46:31;1.30;;;0.70;;
58071;SDS011;60383;46.626;18.866;2023-09-19T11:49:07;2.67;;;0.73;;
58071;SDS011;60383;46.626;18.866;2023-09-19T11:51:41;1.35;;;0.55;;
58071;SDS011;60383;46.626;18.866;2023-09-19T11:54:12;2.35;;;0.80;;
58071;SDS011;60383;46.626;18.866;2023-09-19T11:56:43;1.77;;;0.60;;
58071;SDS011;60383;46.626;18.866;2023-09-19T11:59:10;0.80;;;0.57;;
58071;SDS011;60383;46.626;18.866;2023-09-19T12:01:36;1.38;;;0.65;;
58071;SDS011;60383;46.626;18.866;2023-09-19T12:04:08;0.85;;;0.60;;
58071;SDS011;60383;46.626;18.866;2023-09-19T12:06:37;1.08;;;0.63;;
58071;SDS011;60383;46.626;18.866;2023-09-19T12:09:12;2.47;;;0.90;;
58071;SDS011;60383;46.626;18.866;2023-09-19T12:11:42;1.20;;;0.70;;
58071;SDS011;60383;46.626;18.866;2023-09-19T12:14:11;1.40;;;0.65;;
58071;SDS011;60383;46.626;18.866;2023-09-19T12:16:55;1.02;;;0.70;;
58071;SDS011;60383;46.626;18.866;2023-09-19T12:19:22;1.25;;;0.70;;
58071;SDS011;60383;46.626;18.866;2023-09-19T12:21:55;0.85;;;0.70;;
58071;SDS011;60383;46.626;18.866;2023-09-19T12:24:25;1.40;;;0.90;;
58071;SDS011;60383;46.626;18.866;2023-09-19T12:26:54;1.25;;;0.70;;
58071;SDS011;60383;46.626;18.866;2023-09-19T12:29:32;1.05;;;0.68;;
58071;SDS011;60383;46.626;18.866;2023-09-19T12:32:10;2.75;;;0.70;;
58071;SDS011;60383;46.626;18.866;2023-09-19T12:34:36;0.70;;;0.70;;
58071;SDS011;60383;46.626;18.866;2023-09-19T12:39:52;3.45;;;0.70;;
58071;SDS011;60383;46.626;18.866;2023-09-19T12:42:23;1.23;;;0.90;;
58071;SDS011;60383;46.626;18.866;2023-09-19T12:44:57;0.95;;;0.80;;
58071;SDS011;60383;46.626;18.866;2023-09-19T12:47:25;0.77;;;0.70;;
58071;SDS011;60383;46.626;18.866;2023-09-19T12:50:08;1.20;;;0.60;;
58071;SDS011;60383;46.626;18.866;2023-09-19T12:52:48;1.00;;;0.73;;
58071;SDS011;60383;46.626;18.866;2023-09-19T12:55:24;2.45;;;1.00;;
58071;SDS011;60383;46.626;18.866;2023-09-19T13:00:44;1.15;;;0.80;;
58071;SDS011;60383;46.626;18.866;2023-09-19T13:03:11;1.63;;;0.80;;
58071;SDS011;60383;46.626;18.866;2023-09-19T13:05:58;0.75;;;0.68;;
58071;SDS011;60383;46.626;18.866;2023-09-19T13:11:05;0.85;;;0.70;;
58071;SDS011;60383;46.626;18.866;2023-09-19T13:13:37;1.35;;;0.80;;
58071;SDS011;60383;46.626;18.866;2023-09-19T13:16:11;1.52;;;0.80;;
58071;SDS011;60383;46.626;18.866;2023-09-19T13:18:43;0.70;;;0.70;;
58071;SDS011;60383;46.626;18.866;2023-09-19T13:21:11;0.60;;;0.55;;
58071;SDS011;60383;46.626;18.866;2023-09-19T13:23:41;0.75;;;0.60;;
58071;SDS011;60383;46.626;18.866;2023-09-19T13:26:08;0.80;;;0.60;;
58071;SDS011;60383;46.626;18.866;2023-09-19T13:28:35;0.90;;;0.80;;
58071;SDS011;60383;46.626;18.866;2023-09-19T13:31:02;0.60;;;0.60;;
58071;SDS011;60383;46.626;18.866;2023-09-19T13:33:28;1.00;;;0.60;;
58071;SDS011;60383;46.626;18.866;2023-09-19T13:35:53;2.75;;;0.85;;
58071;SDS011;60383;46.626;18.866;2023-09-19T13:38:20;2.25;;;1.00;;
58071;SDS011;60383;46.626;18.866;2023-09-19T13:40:47;0.80;;;0.80;;
58071;SDS011;60383;46.626;18.866;2023-09-19T13:43:13;0.98;;;0.90;;
58071;SDS011;60383;46.626;18.866;2023-09-19T13:45:39;0.90;;;0.80;;
58071;SDS011;60383;46.626;18.866;2023-09-19T13:48:07;1.58;;;1.02;;
58071;SDS011;60383;46.626;18.866;2023-09-19T13:50:34;1.63;;;0.80;;
58071;SDS011;60383;46.626;18.866;2023-09-19T13:53:01;1.83;;;0.70;;
58071;SDS011;60383;46.626;18.866;2023-09-19T13:55:28;2.08;;;0.75;;
58071;SDS011;60383;46.626;18.866;2023-09-19T13:57:54;1.10;;;0.70;;
58071;SDS011;60383;46.626;18.866;2023-09-19T14:00:20;0.60;;;0.50;;
58071;SDS011;60383;46.626;18.866;2023-09-19T14:02:47;0.80;;;0.80;;
58071;SDS011;60383;46.626;18.866;2023-09-19T14:05:14;0.60;;;0.55;;
58071;SDS011;60383;46.626;18.866;2023-09-19T14:07:42;0.63;;;0.60;;
58071;SDS011;60383;46.626;18.866;2023-09-19T14:10:09;0.95;;;0.75;;
58071;SDS011;60383;46.626;18.866;2023-09-19T14:12:36;0.70;;;0.60;;
58071;SDS011;60383;46.626;18.866;2023-09-19T14:15:03;0.63;;;0.50;;
58071;SDS011;60383;46.626;18.866;2023-09-19T14:17:29;0.70;;;0.70;;
58071;SDS011;60383;46.626;18.866;2023-09-19T14:19:55;0.70;;;0.60;;
58071;SDS011;60383;46.626;18.866;2023-09-19T14:22:20;1.38;;;0.52;;
58071;SDS011;60383;46.626;18.866;2023-09-19T14:24:46;1.80;;;0.93;;
58071;SDS011;60383;46.626;18.866;2023-09-19T14:27:12;2.25;;;0.80;;
58071;SDS011;60383;46.626;18.866;2023-09-19T14:29:38;1.15;;;0.80;;
58071;SDS011;60383;46.626;18.866;2023-09-19T14:32:04;1.05;;;0.80;;
58071;SDS011;60383;46.626;18.866;2023-09-19T14:34:30;1.45;;;0.70;;
58071;SDS011;60383;46.626;18.866;2023-09-19T14:36:56;2.40;;;0.80;;
58071;SDS011;60383;46.626;18.866;2023-09-19T14:39:21;1.10;;;0.80;;
58071;SDS011;60383;46.626;18.866;2023-09-19T14:41:48;1.98;;;0.63;;
58071;SDS011;60383;46.626;18.866;2023-09-19T14:44:14;0.85;;;0.60;;
58071;SDS011;60383;46.626;18.866;2023-09-19T14:46:41;2.72;;;1.20;;
58071;SDS011;60383;46.626;18.866;2023-09-19T14:49:08;1.15;;;0.70;;
58071;SDS011;60383;46.626;18.866;2023-09-19T14:51:35;1.58;;;0.73;;
58071;SDS011;60383;46.626;18.866;2023-09-19T14:54:00;1.00;;;0.70;;
58071;SDS011;60383;46.626;18.866;2023-09-19T14:56:27;2.05;;;0.80;;
58071;SDS011;60383;46.626;18.866;2023-09-19T14:58:55;0.93;;;0.60;;
58071;SDS011;60383;46.626;18.866;2023-09-19T15:01:20;3.22;;;1.20;;
58071;SDS011;60383;46.626;18.866;2023-09-19T15:03:47;0.98;;;0.90;;
58071;SDS011;60383;46.626;18.866;2023-09-19T15:06:14;1.85;;;0.82;;
58071;SDS011;60383;46.626;18.866;2023-09-19T15:08:41;3.42;;;0.70;;
58071;SDS011;60383;46.626;18.866;2023-09-19T15:11:13;0.60;;;0.60;;
58071;SDS011;60383;46.626;18.866;2023-09-19T15:13:42;1.13;;;0.80;;
58071;SDS011;60383;46.626;18.866;2023-09-19T15:16:09;1.95;;;0.90;;
58071;SDS011;60383;46.626;18.866;2023-09-19T15:18:36;0.70;;;0.60;;
58071;SDS011;60383;46.626;18.866;2023-09-19T15:21:03;1.67;;;0.70;;
58071;SDS011;60383;46.626;18.866;2023-09-19T15:23:29;1.00;;;0.90;;
58071;SDS011;60383;46.626;18.866;2023-09-19T15:25:59;0.60;;;0.60;;
58071;SDS011;60383;46.626;18.866;2023-09-19T15:28:26;1.42;;;0.70;;
58071;SDS011;60383;46.626;18.866;2023-09-19T15:30:57;1.65;;;0.88;;
58071;SDS011;60383;46.626;18.866;2023-09-19T15:33:24;2.55;;;1.02;;
58071;SDS011;60383;46.626;18.866;2023-09-19T15:35:49;1.08;;;0.70;;
58071;SDS011;60383;46.626;18.866;2023-09-19T15:38:15;0.75;;;0.70;;
58071;SDS011;60383;46.626;18.866;2023-09-19T15:40:46;1.83;;;0.90;;
58071;SDS011;60383;46.626;18.866;2023-09-19T15:43:12;2.85;;;0.60;;
58071;SDS011;60383;46.626;18.866;2023-09-19T15:45:38;0.88;;;0.70;;
58071;SDS011;60383;46.626;18.866;2023-09-19T15:48:03;1.23;;;0.70;;
58071;SDS011;60383;46.626;18.866;2023-09-19T15:50:30;1.10;;;0.70;;